sensor_id;sensor_type;location;lat;lon;timestamp;P1;durP1;ratioP1;P2;durP2;ratioP2
18659;SDS011;9459;50.254;19.014;2023-05-29T00:00:50;14.85;;;8.52;;
18659;SDS011;9459;50.254;19.014;2023-05-29T00:03:25;16.02;;;8.73;;
18659;SDS011;9459;50.254;19.014;2023-05-29T00:05:55;12.32;;;6.43;;
18659;SDS011;9459;50.254;19.014;2023-05-29T00:08:23;9.23;;;6.20;;
18659;SDS011;9459;50.254;19.014;2023-05-29T00:10:52;11.18;;;5.78;;
18659;SDS011;9459;50.254;19.014;2023-05-29T00:13:21;8.95;;;5.20;;
18659;SDS011;9459;50.254;19.014;2023-05-29T00:15:51;9.98;;;4.88;;
18659;SDS011;9459;50.254;19.014;2023-05-29T00:18:19;10.32;;;4.63;;
18659;SDS011;9459;50.254;19.014;2023-05-29T00:20:48;7.55;;;4.35;;
18659;SDS011;9459;50.254;19.014;2023-05-29T00:23:17;9.50;;;4.57;;
18659;SDS011;9459;50.254;19.014;2023-05-29T00:25:46;7.47;;;4.60;;
18659;SDS011;9459;50.254;19.014;2023-05-29T00:28:14;8.00;;;4.43;;
18659;SDS011;9459;50.254;19.014;2023-05-29T00:30:43;6.80;;;4.50;;
18659;SDS011;9459;50.254;19.014;2023-05-29T00:33:13;9.75;;;4.72;;
18659;SDS011;9459;50.254;19.014;2023-05-29T00:35:41;9.38;;;4.82;;
18659;SDS011;9459;50.254;19.014;2023-05-29T00:38:10;12.80;;;5.07;;
18659;SDS011;9459;50.254;19.014;2023-05-29T00:40:39;9.48;;;4.35;;
18659;SDS011;9459;50.254;19.014;2023-05-29T00:43:07;7.82;;;4.68;;
18659;SDS011;9459;50.254;19.014;2023-05-29T00:45:36;8.93;;;4.90;;
18659;SDS011;9459;50.254;19.014;2023-05-29T00:48:06;5.53;;;4.00;;
18659;SDS011;9459;50.254;19.014;2023-05-29T00:50:37;6.60;;;4.18;;
18659;SDS011;9459;50.254;19.014;2023-05-29T00:53:05;9.35;;;4.72;;
18659;SDS011;9459;50.254;19.014;2023-05-29T00:55:34;7.45;;;4.20;;
18659;SDS011;9459;50.254;19.014;2023-05-29T00:58:03;8.45;;;4.30;;
18659;SDS011;9459;50.254;19.014;2023-05-29T01:00:32;5.22;;;3.88;;
18659;SDS011;9459;50.254;19.014;2023-05-29T01:03:02;8.60;;;3.95;;
18659;SDS011;9459;50.254;19.014;2023-05-29T01:05:32;5.63;;;4.15;;
18659;SDS011;9459;50.254;19.014;2023-05-29T01:08:03;7.05;;;4.00;;
18659;SDS011;9459;50.254;19.014;2023-05-29T01:10:31;7.65;;;3.60;;
18659;SDS011;9459;50.254;19.014;2023-05-29T01:13:03;6.03;;;3.88;;
18659;SDS011;9459;50.254;19.014;2023-05-29T01:15:35;10.45;;;4.32;;
18659;SDS011;9459;50.254;19.014;2023-05-29T01:18:09;10.23;;;4.20;;
18659;SDS011;9459;50.254;19.014;2023-05-29T01:20:44;7.47;;;3.88;;
18659;SDS011;9459;50.254;19.014;2023-05-29T01:23:34;8.10;;;4.30;;
18659;SDS011;9459;50.254;19.014;2023-05-29T01:26:16;7.43;;;4.22;;
18659;SDS011;9459;50.254;19.014;2023-05-29T01:28:55;9.05;;;4.53;;
18659;SDS011;9459;50.254;19.014;2023-05-29T01:31:26;11.07;;;4.50;;
18659;SDS011;9459;50.254;19.014;2023-05-29T01:33:57;9.88;;;4.70;;
18659;SDS011;9459;50.254;19.014;2023-05-29T01:36:27;5.38;;;3.50;;
18659;SDS011;9459;50.254;19.014;2023-05-29T01:38:56;6.35;;;3.88;;
18659;SDS011;9459;50.254;19.014;2023-05-29T01:41:26;8.90;;;3.83;;
18659;SDS011;9459;50.254;19.014;2023-05-29T01:43:56;7.65;;;4.00;;
18659;SDS011;9459;50.254;19.014;2023-05-29T01:46:26;9.40;;;4.38;;
18659;SDS011;9459;50.254;19.014;2023-05-29T01:48:54;8.05;;;4.35;;
18659;SDS011;9459;50.254;19.014;2023-05-29T01:51:24;6.03;;;4.05;;
18659;SDS011;9459;50.254;19.014;2023-05-29T01:53:52;8.60;;;4.28;;
18659;SDS011;9459;50.254;19.014;2023-05-29T01:56:21;5.80;;;3.72;;
18659;SDS011;9459;50.254;19.014;2023-05-29T01:58:50;7.50;;;3.83;;
18659;SDS011;9459;50.254;19.014;2023-05-29T02:01:20;6.78;;;3.83;;
18659;SDS011;9459;50.254;19.014;2023-05-29T02:03:49;9.75;;;4.22;;
18659;SDS011;9459;50.254;19.014;2023-05-29T02:06:20;7.18;;;4.43;;
18659;SDS011;9459;50.254;19.014;2023-05-29T02:08:49;7.60;;;4.15;;
18659;SDS011;9459;50.254;19.014;2023-05-29T02:11:17;9.05;;;4.07;;
18659;SDS011;9459;50.254;19.014;2023-05-29T02:13:47;11.48;;;4.20;;
18659;SDS011;9459;50.254;19.014;2023-05-29T02:16:15;10.63;;;4.38;;
18659;SDS011;9459;50.254;19.014;2023-05-29T02:18:45;9.13;;;4.25;;
18659;SDS011;9459;50.254;19.014;2023-05-29T02:21:14;11.75;;;5.13;;
18659;SDS011;9459;50.254;19.014;2023-05-29T02:23:43;9.40;;;4.40;;
18659;SDS011;9459;50.254;19.014;2023-05-29T02:26:11;10.18;;;4.70;;
18659;SDS011;9459;50.254;19.014;2023-05-29T02:28:40;5.60;;;4.15;;
18659;SDS011;9459;50.254;19.014;2023-05-29T02:31:09;6.90;;;4.30;;
18659;SDS011;9459;50.254;19.014;2023-05-29T02:33:37;8.55;;;4.32;;
18659;SDS011;9459;50.254;19.014;2023-05-29T02:36:08;10.13;;;5.15;;
18659;SDS011;9459;50.254;19.014;2023-05-29T02:38:38;6.45;;;3.72;;
18659;SDS011;9459;50.254;19.014;2023-05-29T02:41:07;8.70;;;4.60;;
18659;SDS011;9459;50.254;19.014;2023-05-29T02:43:36;6.80;;;3.92;;
18659;SDS011;9459;50.254;19.014;2023-05-29T02:46:04;10.65;;;4.45;;
18659;SDS011;9459;50.254;19.014;2023-05-29T02:48:32;9.85;;;4.28;;
18659;SDS011;9459;50.254;19.014;2023-05-29T02:51:01;8.30;;;4.60;;
18659;SDS011;9459;50.254;19.014;2023-05-29T02:53:31;7.10;;;4.22;;
18659;SDS011;9459;50.254;19.014;2023-05-29T02:55:59;7.20;;;4.30;;
18659;SDS011;9459;50.254;19.014;2023-05-29T02:58:28;6.97;;;3.80;;
18659;SDS011;9459;50.254;19.014;2023-05-29T03:00:57;7.85;;;4.78;;
18659;SDS011;9459;50.254;19.014;2023-05-29T03:03:26;11.00;;;5.00;;
18659;SDS011;9459;50.254;19.014;2023-05-29T03:05:55;10.20;;;4.50;;
18659;SDS011;9459;50.254;19.014;2023-05-29T03:08:24;7.20;;;4.18;;
18659;SDS011;9459;50.254;19.014;2023-05-29T03:10:55;8.10;;;4.57;;
18659;SDS011;9459;50.254;19.014;2023-05-29T03:13:24;5.30;;;3.55;;
18659;SDS011;9459;50.254;19.014;2023-05-29T03:15:54;7.80;;;4.07;;
18659;SDS011;9459;50.254;19.014;2023-05-29T03:18:24;7.70;;;4.00;;
18659;SDS011;9459;50.254;19.014;2023-05-29T03:20:53;7.75;;;4.38;;
18659;SDS011;9459;50.254;19.014;2023-05-29T03:23:22;7.63;;;3.58;;
18659;SDS011;9459;50.254;19.014;2023-05-29T03:25:53;8.97;;;4.63;;
18659;SDS011;9459;50.254;19.014;2023-05-29T03:28:23;6.53;;;3.95;;
18659;SDS011;9459;50.254;19.014;2023-05-29T03:30:51;6.35;;;4.10;;
18659;SDS011;9459;50.254;19.014;2023-05-29T03:33:20;7.60;;;4.20;;
18659;SDS011;9459;50.254;19.014;2023-05-29T03:35:48;8.52;;;4.70;;
18659;SDS011;9459;50.254;19.014;2023-05-29T03:38:17;7.90;;;4.10;;
18659;SDS011;9459;50.254;19.014;2023-05-29T03:40:45;9.07;;;3.83;;
18659;SDS011;9459;50.254;19.014;2023-05-29T03:43:14;7.40;;;4.20;;
18659;SDS011;9459;50.254;19.014;2023-05-29T03:45:44;8.45;;;4.53;;
18659;SDS011;9459;50.254;19.014;2023-05-29T03:48:12;7.68;;;4.55;;
18659;SDS011;9459;50.254;19.014;2023-05-29T03:50:42;7.13;;;4.35;;
18659;SDS011;9459;50.254;19.014;2023-05-29T03:53:10;7.28;;;3.92;;
18659;SDS011;9459;50.254;19.014;2023-05-29T03:55:39;9.65;;;3.95;;
18659;SDS011;9459;50.254;19.014;2023-05-29T03:58:08;8.73;;;4.43;;
18659;SDS011;9459;50.254;19.014;2023-05-29T04:00:39;9.90;;;4.75;;
18659;SDS011;9459;50.254;19.014;2023-05-29T04:03:09;8.43;;;4.55;;
18659;SDS011;9459;50.254;19.014;2023-05-29T04:05:38;7.93;;;4.03;;
18659;SDS011;9459;50.254;19.014;2023-05-29T04:08:07;9.93;;;4.10;;
18659;SDS011;9459;50.254;19.014;2023-05-29T04:10:42;7.63;;;4.22;;
18659;SDS011;9459;50.254;19.014;2023-05-29T04:13:11;7.93;;;4.20;;
18659;SDS011;9459;50.254;19.014;2023-05-29T04:15:40;10.80;;;4.80;;
18659;SDS011;9459;50.254;19.014;2023-05-29T04:18:10;14.85;;;5.32;;
18659;SDS011;9459;50.254;19.014;2023-05-29T04:20:39;10.13;;;4.90;;
18659;SDS011;9459;50.254;19.014;2023-05-29T04:23:08;9.27;;;4.53;;
18659;SDS011;9459;50.254;19.014;2023-05-29T04:25:37;10.10;;;4.95;;
18659;SDS011;9459;50.254;19.014;2023-05-29T04:28:06;8.88;;;4.50;;
18659;SDS011;9459;50.254;19.014;2023-05-29T04:33:06;7.18;;;3.90;;
18659;SDS011;9459;50.254;19.014;2023-05-29T04:35:39;8.90;;;4.38;;
18659;SDS011;9459;50.254;19.014;2023-05-29T04:38:09;8.60;;;4.07;;
18659;SDS011;9459;50.254;19.014;2023-05-29T04:40:38;10.18;;;3.97;;
18659;SDS011;9459;50.254;19.014;2023-05-29T04:43:07;5.50;;;3.70;;
18659;SDS011;9459;50.254;19.014;2023-05-29T04:45:36;7.63;;;4.00;;
18659;SDS011;9459;50.254;19.014;2023-05-29T04:48:04;10.40;;;4.22;;
18659;SDS011;9459;50.254;19.014;2023-05-29T04:50:35;10.60;;;3.88;;
18659;SDS011;9459;50.254;19.014;2023-05-29T04:53:07;7.57;;;3.38;;
18659;SDS011;9459;50.254;19.014;2023-05-29T04:55:36;12.48;;;4.07;;
18659;SDS011;9459;50.254;19.014;2023-05-29T04:58:05;7.53;;;4.10;;
18659;SDS011;9459;50.254;19.014;2023-05-29T05:00:33;6.35;;;3.35;;
18659;SDS011;9459;50.254;19.014;2023-05-29T05:03:02;6.65;;;3.47;;
18659;SDS011;9459;50.254;19.014;2023-05-29T05:05:31;6.30;;;3.60;;
18659;SDS011;9459;50.254;19.014;2023-05-29T05:08:00;8.00;;;3.80;;
18659;SDS011;9459;50.254;19.014;2023-05-29T05:10:30;8.20;;;3.92;;
18659;SDS011;9459;50.254;19.014;2023-05-29T05:12:59;7.40;;;3.88;;
18659;SDS011;9459;50.254;19.014;2023-05-29T05:15:29;7.20;;;3.60;;
18659;SDS011;9459;50.254;19.014;2023-05-29T05:17:58;9.18;;;3.55;;
18659;SDS011;9459;50.254;19.014;2023-05-29T05:20:28;6.13;;;3.17;;
18659;SDS011;9459;50.254;19.014;2023-05-29T05:22:56;5.28;;;2.65;;
18659;SDS011;9459;50.254;19.014;2023-05-29T05:25:27;6.72;;;3.38;;
18659;SDS011;9459;50.254;19.014;2023-05-29T05:27:56;12.63;;;3.72;;
18659;SDS011;9459;50.254;19.014;2023-05-29T05:30:25;4.93;;;2.80;;
18659;SDS011;9459;50.254;19.014;2023-05-29T05:32:54;7.60;;;3.22;;
18659;SDS011;9459;50.254;19.014;2023-05-29T05:35:23;6.68;;;2.85;;
18659;SDS011;9459;50.254;19.014;2023-05-29T05:37:51;7.35;;;3.30;;
18659;SDS011;9459;50.254;19.014;2023-05-29T05:40:20;6.45;;;3.10;;
18659;SDS011;9459;50.254;19.014;2023-05-29T05:42:48;7.97;;;3.05;;
18659;SDS011;9459;50.254;19.014;2023-05-29T05:45:19;7.15;;;3.53;;
18659;SDS011;9459;50.254;19.014;2023-05-29T05:47:47;7.78;;;2.97;;
18659;SDS011;9459;50.254;19.014;2023-05-29T05:50:16;6.35;;;3.30;;
18659;SDS011;9459;50.254;19.014;2023-05-29T05:52:45;6.53;;;3.17;;
18659;SDS011;9459;50.254;19.014;2023-05-29T05:55:13;5.35;;;3.08;;
18659;SDS011;9459;50.254;19.014;2023-05-29T05:57:42;6.78;;;3.17;;
18659;SDS011;9459;50.254;19.014;2023-05-29T06:00:11;7.40;;;3.50;;
18659;SDS011;9459;50.254;19.014;2023-05-29T06:02:42;10.43;;;3.40;;
18659;SDS011;9459;50.254;19.014;2023-05-29T06:05:12;5.72;;;3.13;;
18659;SDS011;9459;50.254;19.014;2023-05-29T06:07:41;6.28;;;2.95;;
18659;SDS011;9459;50.254;19.014;2023-05-29T06:10:10;9.57;;;3.05;;
18659;SDS011;9459;50.254;19.014;2023-05-29T06:12:38;8.52;;;3.20;;
18659;SDS011;9459;50.254;19.014;2023-05-29T06:15:07;7.75;;;3.28;;
18659;SDS011;9459;50.254;19.014;2023-05-29T06:17:37;7.50;;;3.58;;
18659;SDS011;9459;50.254;19.014;2023-05-29T06:20:08;8.05;;;4.30;;
18659;SDS011;9459;50.254;19.014;2023-05-29T06:22:38;9.95;;;3.75;;
18659;SDS011;9459;50.254;19.014;2023-05-29T06:25:07;8.57;;;3.58;;
18659;SDS011;9459;50.254;19.014;2023-05-29T06:30:08;10.85;;;3.35;;
18659;SDS011;9459;50.254;19.014;2023-05-29T06:32:37;7.20;;;2.70;;
18659;SDS011;9459;50.254;19.014;2023-05-29T06:35:08;7.45;;;3.70;;
18659;SDS011;9459;50.254;19.014;2023-05-29T06:37:37;11.65;;;4.00;;
18659;SDS011;9459;50.254;19.014;2023-05-29T06:40:06;10.25;;;3.20;;
18659;SDS011;9459;50.254;19.014;2023-05-29T06:42:35;11.05;;;4.32;;
18659;SDS011;9459;50.254;19.014;2023-05-29T06:45:04;10.30;;;3.53;;
18659;SDS011;9459;50.254;19.014;2023-05-29T06:47:34;7.43;;;3.85;;
18659;SDS011;9459;50.254;19.014;2023-05-29T06:50:05;10.68;;;3.70;;
18659;SDS011;9459;50.254;19.014;2023-05-29T06:52:35;11.15;;;4.00;;
18659;SDS011;9459;50.254;19.014;2023-05-29T06:55:07;11.88;;;4.00;;
18659;SDS011;9459;50.254;19.014;2023-05-29T06:57:36;10.27;;;4.50;;
18659;SDS011;9459;50.254;19.014;2023-05-29T07:00:05;6.43;;;4.07;;
18659;SDS011;9459;50.254;19.014;2023-05-29T07:02:37;7.03;;;3.40;;
18659;SDS011;9459;50.254;19.014;2023-05-29T07:05:08;6.80;;;3.35;;
18659;SDS011;9459;50.254;19.014;2023-05-29T07:07:38;9.18;;;4.35;;
18659;SDS011;9459;50.254;19.014;2023-05-29T07:10:07;10.38;;;4.78;;
18659;SDS011;9459;50.254;19.014;2023-05-29T07:12:36;11.18;;;4.68;;
18659;SDS011;9459;50.254;19.014;2023-05-29T07:15:05;16.30;;;5.65;;
18659;SDS011;9459;50.254;19.014;2023-05-29T07:17:34;11.77;;;5.33;;
18659;SDS011;9459;50.254;19.014;2023-05-29T07:20:04;15.20;;;6.85;;
18659;SDS011;9459;50.254;19.014;2023-05-29T07:22:34;18.45;;;7.03;;
18659;SDS011;9459;50.254;19.014;2023-05-29T07:25:05;10.32;;;6.30;;
18659;SDS011;9459;50.254;19.014;2023-05-29T07:27:34;21.27;;;9.65;;
18659;SDS011;9459;50.254;19.014;2023-05-29T07:30:04;12.40;;;6.85;;
18659;SDS011;9459;50.254;19.014;2023-05-29T07:32:33;12.50;;;6.88;;
18659;SDS011;9459;50.254;19.014;2023-05-29T07:35:02;19.70;;;10.37;;
18659;SDS011;9459;50.254;19.014;2023-05-29T07:37:31;11.85;;;6.40;;
18659;SDS011;9459;50.254;19.014;2023-05-29T07:40:00;8.82;;;3.67;;
18659;SDS011;9459;50.254;19.014;2023-05-29T07:42:33;15.63;;;6.30;;
18659;SDS011;9459;50.254;19.014;2023-05-29T07:45:02;10.10;;;4.65;;
18659;SDS011;9459;50.254;19.014;2023-05-29T07:47:30;8.73;;;4.53;;
18659;SDS011;9459;50.254;19.014;2023-05-29T07:49:59;6.55;;;4.03;;
18659;SDS011;9459;50.254;19.014;2023-05-29T07:52:28;7.53;;;4.80;;
18659;SDS011;9459;50.254;19.014;2023-05-29T07:54:57;6.65;;;3.90;;
18659;SDS011;9459;50.254;19.014;2023-05-29T07:57:25;4.82;;;3.05;;
18659;SDS011;9459;50.254;19.014;2023-05-29T07:59:56;6.20;;;2.85;;
18659;SDS011;9459;50.254;19.014;2023-05-29T08:04:53;7.13;;;2.42;;
18659;SDS011;9459;50.254;19.014;2023-05-29T08:07:22;8.82;;;2.95;;
18659;SDS011;9459;50.254;19.014;2023-05-29T08:09:51;5.30;;;2.20;;
18659;SDS011;9459;50.254;19.014;2023-05-29T08:12:21;4.60;;;1.90;;
18659;SDS011;9459;50.254;19.014;2023-05-29T08:14:50;2.30;;;1.92;;
18659;SDS011;9459;50.254;19.014;2023-05-29T08:17:19;4.07;;;2.50;;
18659;SDS011;9459;50.254;19.014;2023-05-29T08:19:48;4.28;;;2.55;;
18659;SDS011;9459;50.254;19.014;2023-05-29T08:22:17;4.13;;;2.20;;
18659;SDS011;9459;50.254;19.014;2023-05-29T08:24:46;3.15;;;2.47;;
18659;SDS011;9459;50.254;19.014;2023-05-29T08:27:15;5.93;;;3.50;;
18659;SDS011;9459;50.254;19.014;2023-05-29T08:29:44;8.03;;;3.37;;
18659;SDS011;9459;50.254;19.014;2023-05-29T08:32:13;3.13;;;2.25;;
18659;SDS011;9459;50.254;19.014;2023-05-29T08:34:43;7.57;;;2.70;;
18659;SDS011;9459;50.254;19.014;2023-05-29T08:37:13;5.25;;;2.70;;
18659;SDS011;9459;50.254;19.014;2023-05-29T08:39:48;9.27;;;2.42;;
18659;SDS011;9459;50.254;19.014;2023-05-29T08:42:18;4.82;;;2.13;;
18659;SDS011;9459;50.254;19.014;2023-05-29T08:44:49;2.92;;;2.20;;
18659;SDS011;9459;50.254;19.014;2023-05-29T08:47:21;3.55;;;2.00;;
18659;SDS011;9459;50.254;19.014;2023-05-29T08:49:53;5.40;;;2.33;;
18659;SDS011;9459;50.254;19.014;2023-05-29T08:52:22;3.25;;;2.15;;
18659;SDS011;9459;50.254;19.014;2023-05-29T08:54:53;3.97;;;2.30;;
18659;SDS011;9459;50.254;19.014;2023-05-29T08:57:22;5.28;;;2.47;;
18659;SDS011;9459;50.254;19.014;2023-05-29T08:59:52;4.53;;;2.08;;
18659;SDS011;9459;50.254;19.014;2023-05-29T09:02:21;2.22;;;1.50;;
18659;SDS011;9459;50.254;19.014;2023-05-29T09:04:50;3.90;;;2.03;;
18659;SDS011;9459;50.254;19.014;2023-05-29T09:07:23;4.80;;;2.35;;
18659;SDS011;9459;50.254;19.014;2023-05-29T09:09:53;2.70;;;1.80;;
18659;SDS011;9459;50.254;19.014;2023-05-29T09:12:22;2.65;;;1.95;;
18659;SDS011;9459;50.254;19.014;2023-05-29T09:14:50;3.63;;;2.20;;
18659;SDS011;9459;50.254;19.014;2023-05-29T09:17:20;7.40;;;2.50;;
18659;SDS011;9459;50.254;19.014;2023-05-29T09:19:49;3.50;;;1.75;;
18659;SDS011;9459;50.254;19.014;2023-05-29T09:22:18;3.05;;;2.20;;
18659;SDS011;9459;50.254;19.014;2023-05-29T09:24:48;5.93;;;2.78;;
18659;SDS011;9459;50.254;19.014;2023-05-29T09:27:17;4.10;;;2.30;;
18659;SDS011;9459;50.254;19.014;2023-05-29T09:29:47;3.97;;;2.40;;
18659;SDS011;9459;50.254;19.014;2023-05-29T09:32:16;3.60;;;2.15;;
18659;SDS011;9459;50.254;19.014;2023-05-29T09:34:46;3.40;;;2.10;;
18659;SDS011;9459;50.254;19.014;2023-05-29T09:37:14;4.90;;;2.55;;
18659;SDS011;9459;50.254;19.014;2023-05-29T09:39:50;5.13;;;2.45;;
18659;SDS011;9459;50.254;19.014;2023-05-29T09:42:20;4.85;;;2.30;;
18659;SDS011;9459;50.254;19.014;2023-05-29T09:44:52;2.63;;;2.20;;
18659;SDS011;9459;50.254;19.014;2023-05-29T09:47:20;6.70;;;2.33;;
18659;SDS011;9459;50.254;19.014;2023-05-29T09:49:49;3.88;;;2.10;;
18659;SDS011;9459;50.254;19.014;2023-05-29T09:52:20;3.90;;;2.67;;
18659;SDS011;9459;50.254;19.014;2023-05-29T09:54:51;4.18;;;2.40;;
18659;SDS011;9459;50.254;19.014;2023-05-29T09:57:21;4.68;;;2.40;;
18659;SDS011;9459;50.254;19.014;2023-05-29T09:59:51;7.10;;;3.00;;
18659;SDS011;9459;50.254;19.014;2023-05-29T10:02:21;4.38;;;2.65;;
18659;SDS011;9459;50.254;19.014;2023-05-29T10:04:51;4.18;;;2.95;;
18659;SDS011;9459;50.254;19.014;2023-05-29T10:07:22;3.75;;;2.83;;
18659;SDS011;9459;50.254;19.014;2023-05-29T10:09:58;3.47;;;2.95;;
18659;SDS011;9459;50.254;19.014;2023-05-29T10:12:29;6.60;;;3.28;;
18659;SDS011;9459;50.254;19.014;2023-05-29T10:15:01;5.30;;;2.80;;
18659;SDS011;9459;50.254;19.014;2023-05-29T10:17:32;3.60;;;2.58;;
18659;SDS011;9459;50.254;19.014;2023-05-29T10:20:02;9.27;;;3.63;;
18659;SDS011;9459;50.254;19.014;2023-05-29T10:22:35;8.52;;;3.20;;
18659;SDS011;9459;50.254;19.014;2023-05-29T10:25:09;5.22;;;3.10;;
18659;SDS011;9459;50.254;19.014;2023-05-29T10:27:39;5.10;;;3.17;;
18659;SDS011;9459;50.254;19.014;2023-05-29T10:30:09;6.57;;;3.17;;
18659;SDS011;9459;50.254;19.014;2023-05-29T10:32:44;4.55;;;2.60;;
18659;SDS011;9459;50.254;19.014;2023-05-29T10:35:27;6.20;;;2.88;;
18659;SDS011;9459;50.254;19.014;2023-05-29T10:37:59;3.42;;;2.45;;
18659;SDS011;9459;50.254;19.014;2023-05-29T10:40:32;6.13;;;3.72;;
18659;SDS011;9459;50.254;19.014;2023-05-29T10:43:01;5.25;;;3.30;;
18659;SDS011;9459;50.254;19.014;2023-05-29T10:45:47;5.47;;;2.78;;
18659;SDS011;9459;50.254;19.014;2023-05-29T10:48:36;7.97;;;3.47;;
18659;SDS011;9459;50.254;19.014;2023-05-29T10:51:05;4.35;;;2.60;;
18659;SDS011;9459;50.254;19.014;2023-05-29T10:56:10;4.53;;;2.70;;
18659;SDS011;9459;50.254;19.014;2023-05-29T10:58:43;6.13;;;3.60;;
18659;SDS011;9459;50.254;19.014;2023-05-29T11:01:12;5.90;;;2.90;;
18659;SDS011;9459;50.254;19.014;2023-05-29T11:03:41;6.72;;;2.83;;
18659;SDS011;9459;50.254;19.014;2023-05-29T11:06:16;3.13;;;2.35;;
18659;SDS011;9459;50.254;19.014;2023-05-29T11:08:47;4.43;;;2.58;;
18659;SDS011;9459;50.254;19.014;2023-05-29T11:11:28;5.05;;;3.08;;
18659;SDS011;9459;50.254;19.014;2023-05-29T11:14:00;7.15;;;2.92;;
18659;SDS011;9459;50.254;19.014;2023-05-29T11:16:36;4.30;;;3.30;;
18659;SDS011;9459;50.254;19.014;2023-05-29T11:19:05;8.82;;;3.45;;
18659;SDS011;9459;50.254;19.014;2023-05-29T11:21:46;4.38;;;2.70;;
18659;SDS011;9459;50.254;19.014;2023-05-29T11:24:26;3.47;;;2.63;;
18659;SDS011;9459;50.254;19.014;2023-05-29T11:26:58;9.38;;;2.60;;
18659;SDS011;9459;50.254;19.014;2023-05-29T11:29:32;3.38;;;2.30;;
18659;SDS011;9459;50.254;19.014;2023-05-29T11:32:01;5.40;;;2.42;;
18659;SDS011;9459;50.254;19.014;2023-05-29T11:34:31;6.55;;;2.58;;
18659;SDS011;9459;50.254;19.014;2023-05-29T11:37:01;5.65;;;2.78;;
18659;SDS011;9459;50.254;19.014;2023-05-29T11:39:30;6.90;;;2.97;;
18659;SDS011;9459;50.254;19.014;2023-05-29T11:42:00;4.25;;;2.38;;
18659;SDS011;9459;50.254;19.014;2023-05-29T11:44:29;4.00;;;2.58;;
18659;SDS011;9459;50.254;19.014;2023-05-29T11:47:01;2.60;;;2.40;;
18659;SDS011;9459;50.254;19.014;2023-05-29T11:49:30;6.13;;;2.97;;
18659;SDS011;9459;50.254;19.014;2023-05-29T11:52:05;4.45;;;2.78;;
18659;SDS011;9459;50.254;19.014;2023-05-29T11:54:42;4.25;;;2.38;;
18659;SDS011;9459;50.254;19.014;2023-05-29T11:57:20;6.80;;;2.88;;
18659;SDS011;9459;50.254;19.014;2023-05-29T11:59:50;7.95;;;3.55;;
18659;SDS011;9459;50.254;19.014;2023-05-29T12:02:25;4.68;;;2.70;;
18659;SDS011;9459;50.254;19.014;2023-05-29T12:05:00;4.80;;;3.22;;
18659;SDS011;9459;50.254;19.014;2023-05-29T12:07:34;4.55;;;2.88;;
18659;SDS011;9459;50.254;19.014;2023-05-29T12:10:09;4.45;;;2.55;;
18659;SDS011;9459;50.254;19.014;2023-05-29T12:12:40;5.00;;;2.80;;
18659;SDS011;9459;50.254;19.014;2023-05-29T12:15:09;4.32;;;2.13;;
18659;SDS011;9459;50.254;19.014;2023-05-29T12:17:40;5.20;;;2.22;;
18659;SDS011;9459;50.254;19.014;2023-05-29T12:20:10;3.30;;;2.63;;
18659;SDS011;9459;50.254;19.014;2023-05-29T12:22:41;4.77;;;2.80;;
18659;SDS011;9459;50.254;19.014;2023-05-29T12:25:11;5.40;;;2.80;;
18659;SDS011;9459;50.254;19.014;2023-05-29T12:27:42;4.87;;;2.80;;
18659;SDS011;9459;50.254;19.014;2023-05-29T12:30:14;4.30;;;2.80;;
18659;SDS011;9459;50.254;19.014;2023-05-29T12:32:57;3.90;;;2.45;;
18659;SDS011;9459;50.254;19.014;2023-05-29T12:35:28;9.07;;;2.85;;
18659;SDS011;9459;50.254;19.014;2023-05-29T12:37:58;5.13;;;2.70;;
18659;SDS011;9459;50.254;19.014;2023-05-29T12:40:28;5.07;;;3.25;;
18659;SDS011;9459;50.254;19.014;2023-05-29T12:43:00;4.60;;;2.67;;
18659;SDS011;9459;50.254;19.014;2023-05-29T12:45:30;6.45;;;3.13;;
18659;SDS011;9459;50.254;19.014;2023-05-29T12:48:00;4.40;;;3.00;;
18659;SDS011;9459;50.254;19.014;2023-05-29T12:50:30;5.25;;;3.05;;
18659;SDS011;9459;50.254;19.014;2023-05-29T12:53:00;4.30;;;2.95;;
18659;SDS011;9459;50.254;19.014;2023-05-29T12:55:30;3.50;;;2.65;;
18659;SDS011;9459;50.254;19.014;2023-05-29T12:58:02;3.35;;;2.38;;
18659;SDS011;9459;50.254;19.014;2023-05-29T13:00:31;3.10;;;2.60;;
18659;SDS011;9459;50.254;19.014;2023-05-29T13:03:00;6.20;;;2.55;;
18659;SDS011;9459;50.254;19.014;2023-05-29T13:05:29;3.13;;;2.65;;
18659;SDS011;9459;50.254;19.014;2023-05-29T13:07:58;4.82;;;2.83;;
18659;SDS011;9459;50.254;19.014;2023-05-29T13:10:27;4.03;;;2.90;;
18659;SDS011;9459;50.254;19.014;2023-05-29T13:12:57;3.65;;;3.05;;
18659;SDS011;9459;50.254;19.014;2023-05-29T13:15:27;4.53;;;3.33;;
18659;SDS011;9459;50.254;19.014;2023-05-29T13:17:56;7.07;;;3.35;;
18659;SDS011;9459;50.254;19.014;2023-05-29T13:20:25;4.85;;;3.03;;
18659;SDS011;9459;50.254;19.014;2023-05-29T13:22:54;4.32;;;2.33;;
18659;SDS011;9459;50.254;19.014;2023-05-29T13:25:22;4.10;;;2.60;;
18659;SDS011;9459;50.254;19.014;2023-05-29T13:27:53;3.75;;;2.70;;
18659;SDS011;9459;50.254;19.014;2023-05-29T13:30:22;3.95;;;2.60;;
18659;SDS011;9459;50.254;19.014;2023-05-29T13:32:52;4.90;;;2.30;;
18659;SDS011;9459;50.254;19.014;2023-05-29T13:35:21;4.15;;;2.58;;
18659;SDS011;9459;50.254;19.014;2023-05-29T13:37:50;4.75;;;2.55;;
18659;SDS011;9459;50.254;19.014;2023-05-29T13:40:18;4.93;;;2.40;;
18659;SDS011;9459;50.254;19.014;2023-05-29T13:42:47;4.40;;;2.45;;
18659;SDS011;9459;50.254;19.014;2023-05-29T13:45:15;4.30;;;2.50;;
18659;SDS011;9459;50.254;19.014;2023-05-29T13:47:47;4.63;;;2.80;;
18659;SDS011;9459;50.254;19.014;2023-05-29T13:50:17;4.30;;;2.45;;
18659;SDS011;9459;50.254;19.014;2023-05-29T13:52:46;3.80;;;2.90;;
18659;SDS011;9459;50.254;19.014;2023-05-29T13:55:14;4.55;;;2.70;;
18659;SDS011;9459;50.254;19.014;2023-05-29T13:57:43;6.40;;;2.70;;
18659;SDS011;9459;50.254;19.014;2023-05-29T14:00:11;4.20;;;2.90;;
18659;SDS011;9459;50.254;19.014;2023-05-29T14:02:41;4.10;;;2.55;;
18659;SDS011;9459;50.254;19.014;2023-05-29T14:05:10;3.80;;;2.72;;
18659;SDS011;9459;50.254;19.014;2023-05-29T14:07:40;6.90;;;2.70;;
18659;SDS011;9459;50.254;19.014;2023-05-29T14:10:09;3.47;;;2.53;;
18659;SDS011;9459;50.254;19.014;2023-05-29T14:12:39;3.70;;;2.47;;
18659;SDS011;9459;50.254;19.014;2023-05-29T14:15:08;4.85;;;2.85;;
18659;SDS011;9459;50.254;19.014;2023-05-29T14:17:38;4.00;;;2.80;;
18659;SDS011;9459;50.254;19.014;2023-05-29T14:20:06;2.97;;;2.38;;
18659;SDS011;9459;50.254;19.014;2023-05-29T14:22:36;4.93;;;2.65;;
18659;SDS011;9459;50.254;19.014;2023-05-29T14:25:06;4.45;;;2.40;;
18659;SDS011;9459;50.254;19.014;2023-05-29T14:27:36;3.67;;;2.13;;
18659;SDS011;9459;50.254;19.014;2023-05-29T14:30:05;3.05;;;2.30;;
18659;SDS011;9459;50.254;19.014;2023-05-29T14:32:35;3.90;;;2.40;;
18659;SDS011;9459;50.254;19.014;2023-05-29T14:35:03;2.58;;;2.13;;
18659;SDS011;9459;50.254;19.014;2023-05-29T14:37:32;3.65;;;2.10;;
18659;SDS011;9459;50.254;19.014;2023-05-29T14:40:01;5.80;;;2.67;;
18659;SDS011;9459;50.254;19.014;2023-05-29T14:42:32;3.33;;;2.15;;
18659;SDS011;9459;50.254;19.014;2023-05-29T14:45:00;6.30;;;2.25;;
18659;SDS011;9459;50.254;19.014;2023-05-29T14:47:30;4.97;;;2.40;;
18659;SDS011;9459;50.254;19.014;2023-05-29T14:49:59;3.42;;;2.50;;
18659;SDS011;9459;50.254;19.014;2023-05-29T14:52:28;3.05;;;2.40;;
18659;SDS011;9459;50.254;19.014;2023-05-29T14:54:56;5.82;;;3.03;;
18659;SDS011;9459;50.254;19.014;2023-05-29T14:57:25;3.88;;;2.60;;
18659;SDS011;9459;50.254;19.014;2023-05-29T14:59:55;3.28;;;2.35;;
18659;SDS011;9459;50.254;19.014;2023-05-29T15:02:24;3.80;;;2.63;;
18659;SDS011;9459;50.254;19.014;2023-05-29T15:04:53;3.53;;;2.05;;
18659;SDS011;9459;50.254;19.014;2023-05-29T15:07:23;4.80;;;2.83;;
18659;SDS011;9459;50.254;19.014;2023-05-29T15:09:51;4.18;;;2.20;;
18659;SDS011;9459;50.254;19.014;2023-05-29T15:12:20;5.97;;;2.63;;